createdAt,value
2019-05-11T00:01:14.720Z,5.78
2019-05-11T00:03:40.815Z,4.20
2019-05-11T00:06:06.743Z,4.85
2019-05-11T00:08:32.785Z,6.90
2019-05-11T00:10:58.925Z,5.33
2019-05-11T00:13:25.033Z,6.95
2019-05-11T00:15:51.041Z,8.28
2019-05-11T00:18:17.061Z,8.58
2019-05-11T00:20:43.103Z,8.00
2019-05-11T00:23:09.111Z,7.35
2019-05-11T00:25:35.143Z,6.62
2019-05-11T00:28:01.179Z,6.00
2019-05-11T00:30:27.296Z,6.35
2019-05-11T00:32:53.207Z,6.45
2019-05-11T00:35:19.218Z,4.50
2019-05-11T00:37:45.196Z,5.58
2019-05-11T00:40:14.769Z,6.83
2019-05-11T00:42:39.528Z,7.20
2019-05-11T00:45:05.879Z,6.25
2019-05-11T00:47:32.284Z,6.95
2019-05-11T00:49:58.382Z,8.98
2019-05-11T00:52:24.420Z,8.45
2019-05-11T00:54:50.320Z,7.17
2019-05-11T00:57:16.433Z,6.83
2019-05-11T00:59:42.336Z,7.58
2019-05-11T01:02:08.277Z,6.83
2019-05-11T01:04:34.277Z,6.92
2019-05-11T01:07:00.296Z,5.22
2019-05-11T01:09:26.295Z,6.20
2019-05-11T01:11:52.326Z,6.45
2019-05-11T01:14:18.438Z,8.25
2019-05-11T01:16:44.544Z,7.78
2019-05-11T01:19:10.671Z,6.40
2019-05-11T01:21:36.671Z,7.92
2019-05-11T01:24:02.799Z,6.28
2019-05-11T01:26:28.905Z,5.78
2019-05-11T01:28:54.915Z,7.67
2019-05-11T01:31:20.938Z,7.50
2019-05-11T01:33:47.047Z,7.72
2019-05-11T01:36:13.054Z,6.33
2019-05-11T01:38:39.161Z,7.97
2019-05-11T01:41:05.269Z,8.90
2019-05-11T01:43:31.279Z,6.03
2019-05-11T01:45:57.373Z,6.35
2019-05-11T01:48:23.545Z,5.20
2019-05-11T01:50:49.530Z,5.47
2019-05-11T01:53:15.466Z,6.87
2019-05-11T01:55:41.466Z,10.55
2019-05-11T01:58:07.482Z,8.78
2019-05-11T02:00:33.617Z,8.33
2019-05-11T02:02:59.750Z,4.42
2019-05-11T02:05:27.755Z,5.83
2019-05-11T02:07:53.985Z,5.28
2019-05-11T02:10:19.987Z,6.92
2019-05-11T02:12:46.104Z,8.20
2019-05-11T02:15:12.207Z,10.05
2019-05-11T02:17:38.215Z,11.18
2019-05-11T02:20:04.626Z,9.93
2019-05-11T02:22:30.736Z,9.43
2019-05-11T02:24:56.649Z,6.35
2019-05-11T02:27:22.696Z,6.70
2019-05-11T02:29:48.637Z,6.87
2019-05-11T02:32:14.534Z,6.62
2019-05-11T02:34:40.472Z,5.50
2019-05-11T02:37:06.505Z,6.15
2019-05-11T02:39:32.503Z,5.80
2019-05-11T02:41:58.804Z,7.37
2019-05-11T02:44:24.848Z,7.53
2019-05-11T02:46:50.969Z,6.20
2019-05-11T02:49:17.009Z,4.28
2019-05-11T02:51:43.538Z,6.20
2019-05-11T02:54:10.257Z,6.42
2019-05-11T02:56:36.155Z,6.85
2019-05-11T02:59:02.454Z,5.87
2019-05-11T03:01:28.359Z,4.65
2019-05-11T03:03:54.370Z,6.03
2019-05-11T03:06:20.411Z,5.30
2019-05-11T03:08:46.414Z,5.25
2019-05-11T03:11:12.412Z,6.22
2019-05-11T03:13:38.413Z,6.17
2019-05-11T03:16:04.523Z,6.25
2019-05-11T03:18:30.552Z,5.53
2019-05-11T03:20:56.662Z,5.58
2019-05-11T03:23:22.698Z,6.35
2019-05-11T03:25:48.702Z,4.17
2019-05-11T03:28:14.698Z,4.78
2019-05-11T03:30:40.968Z,5.92
2019-05-11T03:33:07.110Z,4.87
2019-05-11T03:35:33.213Z,4.47
2019-05-11T03:37:59.218Z,6.05
2019-05-11T03:40:25.329Z,6.12
2019-05-11T03:42:51.341Z,5.90
2019-05-11T03:45:17.448Z,5.33
2019-05-11T03:47:43.469Z,4.83
2019-05-11T03:50:09.697Z,4.87
2019-05-11T03:52:35.626Z,4.90
2019-05-11T03:55:01.757Z,7.03
2019-05-11T03:57:27.909Z,9.00
2019-05-11T03:59:53.821Z,6.95
2019-05-11T04:02:19.826Z,6.78
2019-05-11T04:04:45.827Z,5.85
2019-05-11T04:07:11.765Z,5.47
2019-05-11T04:09:37.893Z,4.95
2019-05-11T04:12:04.020Z,9.95
2019-05-11T04:14:30.052Z,8.28
2019-05-11T04:16:56.055Z,8.50
2019-05-11T04:19:22.008Z,5.78
2019-05-11T04:21:48.096Z,5.72
2019-05-11T04:24:14.122Z,5.40
2019-05-11T04:26:40.226Z,5.45
2019-05-11T04:29:06.225Z,4.65
2019-05-11T04:31:32.235Z,4.30
2019-05-11T04:33:58.351Z,4.30
2019-05-11T04:36:24.448Z,4.78
2019-05-11T04:38:50.448Z,4.87
2019-05-11T04:41:16.474Z,4.28
2019-05-11T04:43:42.375Z,4.80
2019-05-11T04:46:08.402Z,5.10
2019-05-11T04:48:34.411Z,8.75
2019-05-11T04:51:00.324Z,8.28
2019-05-11T04:53:26.731Z,6.75
2019-05-11T04:55:52.864Z,7.83
2019-05-11T04:58:18.905Z,7.60
2019-05-11T05:00:44.895Z,6.90
2019-05-11T05:03:11.027Z,8.88
2019-05-11T05:05:37.033Z,7.72
2019-05-11T05:08:09.602Z,7.90
2019-05-11T05:10:31.045Z,7.90
2019-05-11T05:13:09.724Z,7.40
2019-05-11T05:15:24.853Z,7.80
2019-05-11T05:17:50.959Z,8.53
2019-05-11T05:20:17.060Z,7.35
2019-05-11T05:22:43.309Z,8.15
2019-05-11T05:25:09.424Z,8.43
2019-05-11T05:27:35.411Z,8.08
2019-05-11T05:30:02.064Z,7.95
2019-05-11T05:32:28.156Z,7.60
2019-05-11T05:34:54.155Z,7.40
2019-05-11T05:37:20.060Z,7.40
2019-05-11T05:39:45.971Z,6.97
2019-05-11T05:42:12.313Z,6.97
2019-05-11T05:44:38.312Z,7.22
2019-05-11T05:47:04.213Z,6.80
2019-05-11T05:49:30.216Z,6.78
2019-05-11T05:51:58.344Z,6.25
2019-05-11T05:54:24.230Z,6.75
2019-05-11T05:56:51.112Z,7.47
2019-05-11T05:59:17.230Z,6.70
2019-05-11T06:01:43.316Z,6.67
2019-05-11T06:04:09.447Z,5.95
2019-05-11T06:06:35.464Z,6.75
2019-05-11T06:09:01.595Z,6.55
2019-05-11T06:11:27.623Z,5.70
2019-05-11T06:13:53.520Z,5.65
2019-05-11T06:16:19.450Z,5.50
2019-05-11T06:18:45.488Z,6.10
2019-05-11T06:21:11.378Z,4.17
2019-05-11T06:23:37.409Z,4.80
2019-05-11T06:26:03.529Z,4.67
2019-05-11T06:28:29.658Z,3.90
2019-05-11T06:30:55.558Z,4.90
2019-05-11T06:33:21.573Z,4.03
2019-05-11T06:35:47.520Z,3.37
2019-05-11T06:38:13.455Z,3.10
2019-05-11T06:40:39.574Z,3.92
2019-05-11T06:43:05.676Z,3.15
2019-05-11T06:45:31.781Z,3.40
2019-05-11T06:47:57.822Z,3.50
2019-05-11T06:50:23.729Z,3.00
2019-05-11T06:52:49.742Z,2.90
2019-05-11T06:55:15.872Z,2.70
2019-05-11T06:57:41.882Z,3.08
2019-05-11T07:00:08.651Z,2.62
2019-05-11T07:02:34.536Z,2.47
2019-05-11T07:05:00.554Z,2.50
2019-05-11T07:07:26.452Z,2.75
2019-05-11T07:09:52.396Z,2.50
2019-05-11T07:12:18.463Z,2.72
2019-05-11T07:14:44.726Z,2.62
2019-05-11T07:17:10.827Z,2.67
2019-05-11T07:19:36.932Z,2.80
2019-05-11T07:22:03.034Z,2.90
2019-05-11T07:24:29.137Z,2.08
2019-05-11T07:26:55.252Z,2.40
2019-05-11T07:29:21.161Z,2.87
2019-05-11T07:31:47.161Z,3.02
2019-05-11T07:34:13.066Z,2.67
2019-05-11T07:36:39.211Z,2.47
2019-05-11T07:39:05.517Z,2.92
2019-05-11T07:41:31.452Z,3.33
2019-05-11T07:43:58.960Z,2.75
2019-05-11T07:46:25.271Z,2.80
2019-05-11T07:48:51.170Z,2.70
2019-05-11T07:51:18.268Z,2.77
2019-05-11T07:53:44.499Z,2.70
2019-05-11T07:56:10.594Z,2.42
2019-05-11T07:58:38.760Z,2.67
2019-05-11T08:01:04.630Z,2.75
2019-05-11T08:03:30.737Z,2.45
2019-05-11T08:05:58.257Z,3.00
2019-05-11T08:08:25.213Z,2.15
2019-05-11T08:10:51.429Z,2.17
2019-05-11T08:13:17.876Z,1.85
2019-05-11T08:15:44.087Z,2.80
2019-05-11T08:18:10.121Z,2.27
2019-05-11T08:20:38.461Z,2.72
2019-05-11T08:23:04.375Z,2.17
2019-05-11T08:25:30.886Z,1.82
2019-05-11T08:27:58.870Z,1.70
2019-05-11T08:30:25.162Z,1.65
2019-05-11T08:32:51.283Z,1.67
2019-05-11T08:35:17.962Z,1.80
2019-05-11T08:37:44.121Z,1.82
2019-05-11T08:40:10.830Z,2.08
2019-05-11T08:42:37.832Z,2.35
2019-05-11T08:45:16.148Z,2.40
2019-05-11T08:47:32.528Z,1.60
2019-05-11T08:49:59.054Z,1.90
2019-05-11T08:52:25.133Z,1.37
2019-05-11T08:54:51.181Z,1.90
2019-05-11T08:57:17.981Z,2.20
2019-05-11T08:59:44.322Z,1.60
2019-05-11T09:02:10.365Z,2.80
2019-05-11T09:04:39.425Z,2.70
2019-05-11T09:07:04.414Z,2.25
2019-05-11T09:09:30.523Z,2.47
2019-05-11T09:11:58.914Z,2.65
2019-05-11T09:14:24.561Z,2.52
2019-05-11T09:16:50.583Z,2.47
2019-05-11T09:19:17.779Z,2.62
2019-05-11T09:21:44.129Z,3.00
2019-05-11T09:24:10.137Z,2.22
2019-05-11T09:26:38.646Z,2.42
2019-05-11T09:29:04.150Z,2.83
2019-05-11T09:31:30.263Z,2.80
2019-05-11T09:33:58.363Z,2.62
2019-05-11T09:36:24.320Z,2.85
2019-05-11T09:38:50.482Z,2.37
2019-05-11T09:41:18.013Z,2.75
2019-05-11T09:43:44.401Z,3.58
2019-05-11T09:46:10.507Z,2.45
2019-05-11T09:48:37.805Z,2.52
2019-05-11T09:51:04.225Z,2.40
2019-05-11T09:53:30.137Z,2.65
2019-05-11T09:55:58.526Z,2.90
2019-05-11T09:58:24.295Z,2.10
2019-05-11T10:00:50.232Z,2.40
2019-05-11T10:03:18.149Z,3.00
2019-05-11T10:05:44.184Z,3.20
2019-05-11T10:08:10.227Z,2.65
2019-05-11T10:10:38.313Z,3.08
2019-05-11T10:13:04.343Z,2.77
2019-05-11T10:15:30.452Z,2.98
2019-05-11T10:17:58.227Z,2.80
2019-05-11T10:20:24.379Z,2.55
2019-05-11T10:22:50.409Z,3.00
2019-05-11T10:25:18.173Z,2.95
2019-05-11T10:27:44.643Z,3.08
2019-05-11T10:30:10.951Z,2.90
2019-05-11T10:32:38.022Z,4.08
2019-05-11T10:35:04.771Z,2.80
2019-05-11T10:37:30.813Z,3.77
2019-05-11T10:39:57.800Z,3.12
2019-05-11T10:42:24.054Z,3.35
2019-05-11T10:44:49.952Z,3.10
2019-05-11T10:47:18.288Z,2.77
2019-05-11T10:49:44.025Z,4.37
2019-05-11T10:52:10.017Z,3.12
2019-05-11T10:54:39.198Z,2.60
2019-05-11T10:57:04.051Z,2.45
2019-05-11T10:59:30.090Z,2.30
2019-05-11T11:01:55.987Z,1.50
2019-05-11T11:04:22.099Z,2.10
2019-05-11T11:06:48.505Z,2.02
2019-05-11T11:09:14.917Z,1.10
2019-05-11T11:11:41.036Z,1.17
2019-05-11T11:14:08.706Z,1.62
2019-05-11T11:16:39.260Z,1.80
2019-05-11T11:19:02.864Z,1.77
2019-05-11T11:21:28.975Z,1.22
2019-05-11T11:23:54.869Z,1.50
2019-05-11T11:26:20.891Z,1.37
2019-05-11T11:28:47.835Z,1.27
2019-05-11T11:31:14.106Z,1.07
2019-05-11T11:33:40.214Z,1.30
2019-05-11T11:36:08.367Z,1.20
2019-05-11T11:38:34.229Z,1.20
2019-05-11T11:41:00.345Z,1.10
2019-05-11T11:43:28.588Z,1.20
2019-05-11T11:45:54.396Z,1.17
2019-05-11T11:48:22.303Z,1.20
2019-05-11T11:50:48.724Z,1.60
2019-05-11T11:53:18.822Z,1.25
2019-05-11T11:55:48.034Z,1.40
2019-05-11T12:00:41.844Z,1.50
2019-05-11T12:03:08.186Z,1.15
2019-05-11T12:05:34.663Z,0.98
2019-05-11T12:10:21.792Z,1.27
2019-05-11T12:12:47.854Z,1.45
2019-05-11T12:15:17.615Z,1.67
2019-05-11T12:17:43.463Z,1.40
2019-05-11T12:20:09.663Z,1.27
2019-05-11T12:22:35.570Z,1.20
2019-05-11T12:25:01.581Z,1.60
2019-05-11T12:27:28.690Z,1.20
2019-05-11T12:29:54.987Z,1.10
2019-05-11T12:32:22.931Z,1.25
2019-05-11T12:34:48.964Z,1.42
2019-05-11T12:37:14.974Z,1.20
2019-05-11T12:39:40.983Z,1.52
2019-05-11T12:42:08.605Z,2.05
2019-05-11T12:44:34.753Z,1.37
2019-05-11T12:47:00.772Z,1.07
2019-05-11T12:49:28.695Z,1.75
2019-05-11T12:51:54.685Z,1.27
2019-05-11T12:54:20.646Z,0.70
2019-05-11T12:56:48.854Z,1.00
2019-05-11T12:59:14.667Z,0.98
2019-05-11T13:01:41.052Z,0.85
2019-05-11T13:04:08.874Z,1.45
2019-05-11T13:06:35.110Z,1.43
2019-05-11T13:09:01.228Z,1.12
2019-05-11T13:11:28.611Z,1.10
2019-05-11T13:13:54.774Z,0.80
2019-05-11T13:16:22.301Z,1.30
2019-05-11T13:18:48.735Z,0.80
2019-05-11T13:21:15.060Z,1.00
2019-05-11T13:23:40.978Z,1.27
2019-05-11T13:26:08.746Z,0.80
2019-05-11T13:28:34.907Z,0.80
2019-05-11T13:31:00.930Z,0.90
2019-05-11T13:33:28.001Z,0.90
2019-05-11T13:35:54.179Z,1.10
2019-05-11T13:38:20.182Z,1.00
2019-05-11T13:40:48.743Z,0.82
2019-05-11T13:45:41.127Z,0.90
2019-05-11T13:48:08.476Z,1.30
2019-05-11T13:50:34.635Z,1.00
2019-05-11T13:53:00.703Z,0.82
2019-05-11T13:55:28.413Z,1.60
2019-05-11T13:57:54.444Z,0.90
2019-05-11T14:00:20.688Z,0.98
2019-05-11T14:02:48.498Z,1.02
2019-05-11T14:05:14.936Z,1.10
2019-05-11T14:07:41.092Z,0.90
2019-05-11T14:10:08.072Z,0.80
2019-05-11T14:12:34.284Z,1.00
2019-05-11T14:15:00.399Z,0.93
2019-05-11T14:17:28.759Z,0.80
2019-05-11T14:19:54.626Z,0.95
2019-05-11T14:22:20.627Z,1.05
2019-05-11T14:24:48.255Z,1.12
2019-05-11T14:27:14.608Z,0.95
2019-05-11T14:29:41.504Z,1.20
